createdAt,value
2018-12-09T00:02:06.751Z,99.90
2018-12-09T00:04:34.246Z,99.90
2018-12-09T00:07:01.736Z,99.90
2018-12-09T00:09:29.207Z,99.90
2018-12-09T00:11:56.615Z,99.90
2018-12-09T00:14:24.074Z,99.90
2018-12-09T00:16:51.520Z,99.90
2018-12-09T00:19:18.932Z,99.90
2018-12-09T00:21:46.348Z,99.90
2018-12-09T00:24:13.760Z,99.90
2018-12-09T00:26:41.180Z,99.90
2018-12-09T00:29:08.605Z,99.80
2018-12-09T00:31:36.010Z,99.00
2018-12-09T00:34:03.461Z,98.60
2018-12-09T00:36:30.879Z,97.90
2018-12-09T00:38:58.346Z,97.50
2018-12-09T00:41:25.831Z,97.00
2018-12-09T00:43:53.260Z,96.50
2018-12-09T00:46:20.690Z,96.00
2018-12-09T00:48:48.772Z,95.90
2018-12-09T00:51:16.272Z,95.50
2018-12-09T00:53:43.692Z,95.30
2018-12-09T00:56:11.152Z,95.40
2018-12-09T00:58:38.675Z,95.50
2018-12-09T01:01:06.183Z,95.30
2018-12-09T01:03:33.611Z,95.00
2018-12-09T01:06:01.448Z,94.60
2018-12-09T01:08:28.860Z,94.50
2018-12-09T01:10:56.275Z,94.40
2018-12-09T01:13:23.701Z,94.20
2018-12-09T01:15:51.156Z,93.90
2018-12-09T01:18:18.560Z,93.80
2018-12-09T01:20:45.983Z,93.70
2018-12-09T01:23:13.401Z,93.60
2018-12-09T01:25:41.117Z,93.60
2018-12-09T01:28:08.643Z,93.70
2018-12-09T01:30:36.139Z,93.50
2018-12-09T01:33:03.593Z,93.00
2018-12-09T01:35:31.020Z,93.00
2018-12-09T01:37:58.431Z,92.80
2018-12-09T01:40:25.924Z,92.50
2018-12-09T01:42:53.449Z,92.30
2018-12-09T01:45:21.244Z,92.40
2018-12-09T01:47:49.045Z,92.00
2018-12-09T01:50:16.542Z,91.80
2018-12-09T01:52:47.904Z,91.80
2018-12-09T01:55:15.404Z,91.50
2018-12-09T01:57:42.901Z,90.80
2018-12-09T02:00:10.599Z,90.80
2018-12-09T02:02:38.148Z,91.10
2018-12-09T02:05:06.054Z,91.20
2018-12-09T02:07:33.548Z,91.40
2018-12-09T02:10:00.961Z,91.40
2018-12-09T02:12:28.509Z,91.70
2018-12-09T02:14:55.931Z,91.90
2018-12-09T02:17:23.432Z,92.40
2018-12-09T02:19:51.233Z,92.60
2018-12-09T02:22:18.728Z,93.00
2018-12-09T02:24:46.535Z,93.40
2018-12-09T02:27:14.020Z,94.00
2018-12-09T02:29:41.510Z,95.20
2018-12-09T02:32:09.236Z,96.20
2018-12-09T02:34:36.790Z,96.90
2018-12-09T02:37:04.283Z,97.90
2018-12-09T02:39:31.782Z,98.10
2018-12-09T02:41:59.280Z,98.60
2018-12-09T02:44:28.081Z,99.00
2018-12-09T02:46:55.756Z,99.00
2018-12-09T02:49:23.264Z,99.10
2018-12-09T02:51:50.797Z,99.10
2018-12-09T02:54:18.339Z,98.90
2018-12-09T02:56:45.832Z,98.80
2018-12-09T02:59:13.357Z,99.50
2018-12-09T03:01:40.897Z,99.90
2018-12-09T03:04:08.384Z,99.90
2018-12-09T03:06:36.316Z,99.90
2018-12-09T03:09:06.152Z,99.90
2018-12-09T03:11:33.649Z,99.90
2018-12-09T03:14:01.137Z,99.90
2018-12-09T03:16:28.680Z,99.90
2018-12-09T03:18:56.305Z,99.90
2018-12-09T03:21:23.798Z,99.90
2018-12-09T03:23:51.293Z,99.90
2018-12-09T03:26:18.771Z,99.90
2018-12-09T03:28:46.252Z,99.90
2018-12-09T03:31:13.741Z,99.90
2018-12-09T03:33:41.230Z,99.90
2018-12-09T03:36:08.728Z,99.90
2018-12-09T03:38:36.221Z,99.90
2018-12-09T03:41:03.817Z,99.90
2018-12-09T03:43:31.314Z,99.90
2018-12-09T03:45:58.808Z,99.80
2018-12-09T03:48:26.289Z,99.60
2018-12-09T03:50:53.790Z,99.60
2018-12-09T03:53:21.448Z,99.40
2018-12-09T03:55:48.971Z,99.20
2018-12-09T03:58:16.461Z,98.80
2018-12-09T04:00:43.951Z,98.60
2018-12-09T04:03:11.482Z,98.50
2018-12-09T04:05:39.001Z,98.60
2018-12-09T04:08:06.856Z,98.70
2018-12-09T04:10:34.340Z,98.80
2018-12-09T04:13:01.768Z,99.00
2018-12-09T04:15:29.266Z,98.80
2018-12-09T04:17:56.796Z,99.00
2018-12-09T04:20:24.593Z,99.10
2018-12-09T04:22:52.093Z,99.40
2018-12-09T04:25:19.584Z,99.70
2018-12-09T04:27:47.070Z,99.70
2018-12-09T04:30:14.808Z,99.80
2018-12-09T04:32:42.497Z,99.90
2018-12-09T04:35:10.019Z,99.90
2018-12-09T04:37:37.526Z,99.90
2018-12-09T04:40:05.012Z,99.90
2018-12-09T04:42:32.450Z,99.90
2018-12-09T04:45:00.141Z,99.90
2018-12-09T04:47:27.640Z,99.70
2018-12-09T04:49:55.148Z,99.70
2018-12-09T04:52:22.635Z,99.40
2018-12-09T04:54:50.127Z,98.90
2018-12-09T04:57:17.859Z,98.60
2018-12-09T04:59:47.121Z,98.50
2018-12-09T05:02:14.670Z,98.70
2018-12-09T05:04:42.196Z,98.90
2018-12-09T05:07:09.735Z,99.00
2018-12-09T05:09:37.236Z,99.30
2018-12-09T05:12:04.653Z,99.70
2018-12-09T05:14:32.172Z,99.90
2018-12-09T05:16:59.912Z,99.90
2018-12-09T05:19:27.400Z,99.90
2018-12-09T05:21:55.051Z,99.90
2018-12-09T05:24:22.482Z,99.90
2018-12-09T05:26:49.968Z,99.80
2018-12-09T05:29:17.456Z,99.30
2018-12-09T05:31:44.885Z,98.70
2018-12-09T05:34:12.720Z,98.10
2018-12-09T05:36:40.204Z,97.90
2018-12-09T05:39:07.700Z,97.70
2018-12-09T05:41:35.184Z,97.50
2018-12-09T05:44:02.599Z,97.60
2018-12-09T05:46:30.297Z,97.30
2018-12-09T05:48:57.776Z,97.40
2018-12-09T05:51:25.279Z,97.40
2018-12-09T05:53:52.793Z,97.20
2018-12-09T05:56:20.213Z,97.00
2018-12-09T05:58:47.703Z,97.20
2018-12-09T06:01:15.195Z,96.60
2018-12-09T06:03:42.820Z,96.60
2018-12-09T06:06:10.300Z,96.60
2018-12-09T06:08:37.788Z,96.30
2018-12-09T06:11:05.313Z,96.40
2018-12-09T06:13:32.800Z,96.40
2018-12-09T06:16:00.208Z,96.20
2018-12-09T06:18:27.708Z,96.20
2018-12-09T06:20:55.195Z,96.30
2018-12-09T06:23:22.675Z,96.40
2018-12-09T06:25:50.180Z,96.60
2018-12-09T06:28:17.677Z,96.90
2018-12-09T06:30:45.164Z,96.80
2018-12-09T06:33:12.648Z,96.70
2018-12-09T06:35:40.116Z,97.00
2018-12-09T06:38:08.600Z,97.00
2018-12-09T06:40:36.101Z,96.70
2018-12-09T06:43:03.609Z,96.70
2018-12-09T06:45:31.111Z,96.60
2018-12-09T06:47:58.598Z,96.20
2018-12-09T06:50:26.384Z,96.50
2018-12-09T06:52:53.885Z,96.00
2018-12-09T06:55:21.378Z,96.00
2018-12-09T06:57:48.876Z,96.00
2018-12-09T07:00:16.368Z,96.00
2018-12-09T07:02:44.060Z,95.70
2018-12-09T07:05:11.544Z,95.30
2018-12-09T07:07:39.032Z,95.50
2018-12-09T07:10:07.205Z,95.80
2018-12-09T07:12:34.799Z,95.80
2018-12-09T07:15:02.301Z,96.00
2018-12-09T07:17:29.988Z,96.20
2018-12-09T07:19:57.484Z,96.70
2018-12-09T07:22:24.964Z,96.20
2018-12-09T07:24:52.454Z,96.20
2018-12-09T07:27:19.956Z,96.00
2018-12-09T07:29:47.644Z,96.20
2018-12-09T07:32:15.134Z,96.70
2018-12-09T07:34:42.640Z,96.90
2018-12-09T07:37:10.141Z,96.80
2018-12-09T07:39:37.567Z,96.60
2018-12-09T07:42:05.368Z,96.60
2018-12-09T07:44:32.891Z,96.50
2018-12-09T07:47:00.376Z,96.40
2018-12-09T07:49:27.872Z,96.50
2018-12-09T07:51:55.420Z,96.50
2018-12-09T07:54:22.829Z,96.30
2018-12-09T07:56:50.621Z,96.20
2018-12-09T07:59:18.064Z,95.90
2018-12-09T08:01:45.481Z,95.70
2018-12-09T08:04:13.304Z,95.50
2018-12-09T08:06:40.713Z,95.20
2018-12-09T08:09:08.139Z,95.50
2018-12-09T08:14:09.873Z,95.40
2018-12-09T08:16:37.334Z,95.40
2018-12-09T08:19:04.745Z,95.40
2018-12-09T08:21:32.199Z,95.40
2018-12-09T08:23:59.881Z,95.10
2018-12-09T08:26:27.372Z,94.90
2018-12-09T08:28:54.778Z,94.70
2018-12-09T08:31:22.313Z,94.60
2018-12-09T08:33:49.736Z,94.30
2018-12-09T08:36:17.200Z,94.10
2018-12-09T08:38:44.619Z,94.10
2018-12-09T08:41:12.046Z,94.10
2018-12-09T08:43:39.496Z,94.20
2018-12-09T08:46:06.943Z,94.10
2018-12-09T08:48:34.375Z,93.90
2018-12-09T08:51:01.839Z,94.00
2018-12-09T08:53:29.292Z,93.90
2018-12-09T08:55:56.749Z,93.60
2018-12-09T08:58:24.150Z,93.40
2018-12-09T09:00:51.582Z,93.40
2018-12-09T09:03:19.023Z,93.20
2018-12-09T09:05:46.421Z,93.20
2018-12-09T09:08:13.849Z,93.20
2018-12-09T09:10:41.252Z,93.20
2018-12-09T09:13:08.711Z,93.20
2018-12-09T09:15:36.110Z,93.10
2018-12-09T09:18:03.792Z,93.10
2018-12-09T09:20:31.285Z,93.10
2018-12-09T09:22:58.796Z,93.40
2018-12-09T09:25:26.328Z,93.70
2018-12-09T09:27:53.780Z,93.70
2018-12-09T09:30:21.264Z,93.70
2018-12-09T09:35:30.771Z,93.90
2018-12-09T09:37:58.248Z,94.10
2018-12-09T09:40:25.884Z,94.20
2018-12-09T09:42:53.327Z,94.40
2018-12-09T09:45:20.769Z,94.50
2018-12-09T09:47:48.408Z,94.60
2018-12-09T09:50:15.822Z,94.60
2018-12-09T09:52:43.248Z,94.80
2018-12-09T09:55:10.740Z,95.10
2018-12-09T09:57:38.164Z,95.60
2018-12-09T10:00:06.160Z,95.70
2018-12-09T10:02:33.581Z,95.80
2018-12-09T10:05:00.988Z,96.10
2018-12-09T10:07:28.404Z,95.80
2018-12-09T10:09:55.836Z,95.70
2018-12-09T10:12:23.323Z,95.80
2018-12-09T10:14:50.848Z,95.70
2018-12-09T10:17:18.268Z,95.60
2018-12-09T10:19:45.778Z,95.70
2018-12-09T10:22:13.268Z,95.90
2018-12-09T10:24:40.675Z,95.90
2018-12-09T10:27:08.136Z,96.10
2018-12-09T10:29:35.569Z,96.30
2018-12-09T10:32:02.981Z,96.60
2018-12-09T10:34:38.568Z,97.00
2018-12-09T10:37:00.136Z,97.40
2018-12-09T10:39:27.548Z,97.60
2018-12-09T10:41:54.955Z,97.90
2018-12-09T10:44:22.372Z,98.00
2018-12-09T10:46:49.799Z,98.10
2018-12-09T10:49:17.284Z,98.10
2018-12-09T10:51:44.716Z,97.90
2018-12-09T10:54:12.144Z,97.70
2018-12-09T10:56:39.565Z,97.60
2018-12-09T10:59:06.988Z,97.60
2018-12-09T11:01:46.309Z,97.50
2018-12-09T11:04:13.752Z,97.50
2018-12-09T11:06:41.164Z,97.50
2018-12-09T11:09:08.606Z,97.10
2018-12-09T11:11:36.006Z,97.00
2018-12-09T11:14:03.454Z,96.80
2018-12-09T11:16:31.184Z,96.90
2018-12-09T11:18:58.623Z,96.90
2018-12-09T11:21:30.603Z,96.90
2018-12-09T11:23:55.438Z,96.90
2018-12-09T11:26:22.992Z,96.50
2018-12-09T11:28:50.500Z,96.40
2018-12-09T11:31:17.896Z,96.30
2018-12-09T11:33:45.320Z,96.20
2018-12-09T11:36:12.763Z,96.00
2018-12-09T11:38:40.573Z,95.80
2018-12-09T11:41:08.047Z,95.80
2018-12-09T11:43:35.451Z,95.60
2018-12-09T11:46:03.456Z,95.60
2018-12-09T11:48:31.047Z,95.60
2018-12-09T11:50:58.716Z,95.30
2018-12-09T11:53:26.124Z,95.20
2018-12-09T11:55:53.624Z,95.10
2018-12-09T11:58:21.039Z,94.80
2018-12-09T12:00:48.654Z,94.80
2018-12-09T12:03:16.055Z,94.70
2018-12-09T12:05:43.519Z,94.60
2018-12-09T12:08:10.933Z,94.30
2018-12-09T12:10:38.619Z,94.10
2018-12-09T12:13:06.065Z,94.10
2018-12-09T12:15:33.548Z,94.00
2018-12-09T12:18:00.979Z,93.90
2018-12-09T12:20:28.406Z,94.10
2018-12-09T12:22:55.811Z,93.80
2018-12-09T12:25:23.238Z,93.50
2018-12-09T12:27:50.740Z,93.50
2018-12-09T12:30:18.161Z,94.00
2018-12-09T12:32:45.582Z,93.70
2018-12-09T12:35:13.307Z,93.70
2018-12-09T12:37:40.754Z,93.80
2018-12-09T12:40:08.800Z,93.60
2018-12-09T12:42:36.230Z,93.50
2018-12-09T12:45:05.033Z,93.50
2018-12-09T12:47:32.484Z,93.20
2018-12-09T12:49:59.993Z,93.30
2018-12-09T12:52:27.452Z,93.50
2018-12-09T12:54:55.044Z,93.90
2018-12-09T12:57:22.464Z,94.10
2018-12-09T12:59:50.228Z,94.20
2018-12-09T13:02:17.646Z,94.50
2018-12-09T13:04:45.056Z,95.10
2018-12-09T13:07:12.480Z,96.10
2018-12-09T13:09:39.897Z,96.30
2018-12-09T13:12:07.402Z,96.60
2018-12-09T13:14:34.816Z,96.80
2018-12-09T13:17:02.249Z,97.10
2018-12-09T13:19:29.674Z,97.20
2018-12-09T13:21:57.193Z,97.20
2018-12-09T13:24:24.630Z,97.30
2018-12-09T13:26:52.095Z,97.30
2018-12-09T13:29:19.587Z,97.30
2018-12-09T13:31:47.054Z,97.40
2018-12-09T13:34:14.472Z,97.40
2018-12-09T13:36:41.884Z,97.40
2018-12-09T13:39:09.431Z,97.50
2018-12-09T13:41:36.972Z,97.70
2018-12-09T13:44:04.522Z,97.90
2018-12-09T13:46:32.308Z,98.20
2018-12-09T13:48:59.830Z,98.40
2018-12-09T13:51:27.236Z,98.60
2018-12-09T13:53:54.923Z,98.80
2018-12-09T13:56:22.407Z,99.00
2018-12-09T13:58:50.844Z,99.60
2018-12-09T14:01:18.264Z,99.50
2018-12-09T14:03:45.684Z,99.70
2018-12-09T14:06:13.144Z,99.90
2018-12-09T14:08:40.596Z,99.90
2018-12-09T14:11:08.031Z,99.90
2018-12-09T14:13:35.440Z,99.90
2018-12-09T14:16:02.887Z,99.90
2018-12-09T14:18:30.704Z,99.90
2018-12-09T14:20:58.112Z,99.90
2018-12-09T14:23:25.536Z,99.90
2018-12-09T14:25:53.382Z,99.90
2018-12-09T14:28:20.784Z,99.90
2018-12-09T14:30:48.280Z,99.90
2018-12-09T14:33:15.944Z,99.90
2018-12-09T14:35:43.388Z,99.90
2018-12-09T14:38:10.800Z,99.90
2018-12-09T14:40:38.271Z,99.90
2018-12-09T14:43:05.730Z,99.90
2018-12-09T14:45:33.145Z,99.90
2018-12-09T14:48:00.612Z,99.90
2018-12-09T14:50:28.364Z,99.90
2018-12-09T14:52:55.795Z,99.90
2018-12-09T14:55:23.256Z,99.90
2018-12-09T14:57:50.940Z,99.90
2018-12-09T15:00:18.376Z,99.90
2018-12-09T15:02:45.825Z,99.90
2018-12-09T15:05:13.240Z,99.90
2018-12-09T15:07:40.664Z,99.90
2018-12-09T15:10:09.137Z,99.90
2018-12-09T15:12:36.655Z,99.90
2018-12-09T15:15:04.439Z,99.90
2018-12-09T15:17:31.904Z,99.90
2018-12-09T15:19:59.325Z,99.90
2018-12-09T15:22:26.814Z,99.90
2018-12-09T15:24:54.289Z,99.90
2018-12-09T15:27:21.999Z,99.90
2018-12-09T15:29:49.429Z,99.90
2018-12-09T15:32:16.846Z,99.90
2018-12-09T15:34:44.272Z,99.90
2018-12-09T15:37:11.825Z,99.90
2018-12-09T15:39:39.332Z,99.90
2018-12-09T15:42:06.712Z,99.90
2018-12-09T15:44:34.376Z,99.90
2018-12-09T15:47:02.972Z,99.90
2018-12-09T15:49:30.384Z,99.90
2018-12-09T15:51:58.132Z,99.90
2018-12-09T15:54:25.781Z,99.90
2018-12-09T15:56:53.194Z,99.90
2018-12-09T15:59:20.951Z,99.90
2018-12-09T16:01:48.548Z,99.90
2018-12-09T16:04:16.050Z,99.90
2018-12-09T16:06:43.477Z,99.90
2018-12-09T16:09:10.977Z,99.90
2018-12-09T16:11:38.436Z,99.90
2018-12-09T16:14:06.122Z,99.90
2018-12-09T16:16:33.619Z,99.90
2018-12-09T16:19:01.139Z,99.90
2018-12-09T16:21:28.884Z,99.90
2018-12-09T16:23:56.351Z,99.90
2018-12-09T16:26:23.821Z,99.90
2018-12-09T16:28:51.303Z,99.90
2018-12-09T16:31:18.726Z,99.90
2018-12-09T16:33:46.208Z,99.90
2018-12-09T16:36:13.679Z,99.90
2018-12-09T16:38:41.156Z,99.90
2018-12-09T16:41:08.569Z,99.90
2018-12-09T16:43:36.067Z,99.90
2018-12-09T16:46:03.877Z,99.90
2018-12-09T16:48:31.364Z,99.90
2018-12-09T16:50:58.778Z,99.90
2018-12-09T16:53:26.555Z,99.90
2018-12-09T16:55:53.966Z,99.90
2018-12-09T16:58:21.383Z,99.90
2018-12-09T17:00:48.850Z,99.90
2018-12-09T17:03:16.243Z,99.90
2018-12-09T17:05:43.653Z,99.90
2018-12-09T17:08:11.185Z,99.90
2018-12-09T17:10:38.571Z,99.90
2018-12-09T17:13:05.988Z,99.90
2018-12-09T17:15:33.574Z,99.90
2018-12-09T17:18:00.982Z,99.90
2018-12-09T17:20:28.396Z,99.90
2018-12-09T17:22:55.831Z,99.90
2018-12-09T17:25:23.228Z,99.90
2018-12-09T17:27:51.046Z,99.90
2018-12-09T17:30:18.471Z,99.90
2018-12-09T17:32:45.962Z,99.90
2018-12-09T17:35:13.623Z,99.90
2018-12-09T17:37:41.027Z,99.90
2018-12-09T17:40:08.885Z,99.90
2018-12-09T17:42:36.333Z,99.90
2018-12-09T17:45:03.927Z,99.90
2018-12-09T17:47:31.627Z,99.90
2018-12-09T17:49:59.046Z,99.90
2018-12-09T17:52:26.458Z,99.90
2018-12-09T17:54:53.872Z,99.90
2018-12-09T17:57:21.285Z,99.90
2018-12-09T17:59:48.718Z,99.90
2018-12-09T18:02:16.174Z,99.90
2018-12-09T18:04:43.595Z,99.90
2018-12-09T18:07:11.127Z,99.90
2018-12-09T18:09:38.584Z,99.90
2018-12-09T18:12:06.001Z,99.90
2018-12-09T18:14:33.460Z,99.90
2018-12-09T18:17:00.916Z,99.90
2018-12-09T18:19:28.354Z,99.90
2018-12-09T18:21:55.884Z,99.90
2018-12-09T18:24:23.300Z,99.90
2018-12-09T18:26:50.767Z,99.90
2018-12-09T18:29:18.253Z,99.90
2018-12-09T18:31:45.885Z,99.90
2018-12-09T18:34:13.312Z,99.90
2018-12-09T18:36:40.796Z,99.90
2018-12-09T18:39:08.212Z,99.90
2018-12-09T18:41:38.576Z,99.90
2018-12-09T18:44:06.033Z,99.90
2018-12-09T18:46:33.564Z,99.90
2018-12-09T18:49:01.055Z,99.90
2018-12-09T18:51:28.504Z,99.90
2018-12-09T18:53:55.936Z,99.90
2018-12-09T18:56:23.459Z,99.90
2018-12-09T18:58:50.960Z,99.90
2018-12-09T19:01:18.380Z,99.90
2018-12-09T19:03:45.856Z,99.90
2018-12-09T19:06:13.348Z,99.90
2018-12-09T19:08:40.839Z,99.90
2018-12-09T19:11:08.376Z,99.90
2018-12-09T19:13:35.824Z,99.90
2018-12-09T19:16:03.307Z,99.90
2018-12-09T19:18:31.878Z,99.90
2018-12-09T19:20:59.252Z,99.90
2018-12-09T19:23:26.675Z,99.90
2018-12-09T19:25:54.101Z,99.90
2018-12-09T19:28:21.541Z,99.90
2018-12-09T19:30:48.973Z,99.90
2018-12-09T19:33:16.468Z,99.90
2018-12-09T19:35:44.012Z,99.90
2018-12-09T19:38:11.441Z,99.90
2018-12-09T19:40:39.169Z,99.90
2018-12-09T19:43:07.652Z,99.90
2018-12-09T19:45:35.052Z,99.90
2018-12-09T19:48:02.607Z,99.90
2018-12-09T19:50:30.018Z,99.90
2018-12-09T19:52:57.435Z,99.90
2018-12-09T19:55:24.972Z,99.90
2018-12-09T19:57:52.423Z,99.90
2018-12-09T20:00:19.854Z,99.90
2018-12-09T20:02:47.292Z,99.90
2018-12-09T20:05:14.761Z,99.90
2018-12-09T20:07:42.188Z,99.90
2018-12-09T20:10:09.643Z,99.90
2018-12-09T20:12:37.052Z,99.90
2018-12-09T20:15:06.261Z,99.90
2018-12-09T20:17:33.760Z,99.90
2018-12-09T20:20:01.256Z,99.90
2018-12-09T20:22:36.788Z,99.90
2018-12-09T20:25:07.150Z,99.90
2018-12-09T20:27:48.944Z,99.90
2018-12-09T20:30:20.105Z,99.90
2018-12-09T20:33:01.116Z,99.90
2018-12-09T20:35:35.813Z,99.90
2018-12-09T20:38:07.955Z,99.90
2018-12-09T20:40:35.662Z,99.90
2018-12-09T20:43:03.403Z,99.90
2018-12-09T20:48:41.105Z,99.90
2018-12-09T20:51:08.532Z,99.90
2018-12-09T20:53:35.952Z,99.90
2018-12-09T20:56:03.415Z,99.90
2018-12-09T20:58:36.297Z,99.90
2018-12-09T21:01:04.661Z,99.90
2018-12-09T21:03:37.541Z,99.90
2018-12-09T21:06:05.287Z,99.90
2018-12-09T21:11:40.896Z,99.90
2018-12-09T21:14:08.309Z,99.90
2018-12-09T21:16:35.729Z,99.90
2018-12-09T21:19:03.228Z,99.90
2018-12-09T21:21:30.717Z,99.90
2018-12-09T21:23:58.158Z,99.90
2018-12-09T21:26:25.616Z,99.90
2018-12-09T21:28:53.037Z,99.90
2018-12-09T21:31:20.500Z,99.90
2018-12-09T21:33:48.037Z,99.90
2018-12-09T21:36:15.480Z,99.90
2018-12-09T21:38:43.790Z,99.90
2018-12-09T21:41:11.288Z,99.90
2018-12-09T21:43:38.774Z,99.90
2018-12-09T21:46:06.196Z,99.90
2018-12-09T21:48:33.596Z,99.90
2018-12-09T21:51:00.999Z,99.90
2018-12-09T21:53:28.424Z,99.90
2018-12-09T21:55:55.955Z,99.90
2018-12-09T21:58:23.429Z,99.90
2018-12-09T22:00:50.850Z,99.90
2018-12-09T22:03:18.260Z,99.90
2018-12-09T22:05:45.678Z,99.90
2018-12-09T22:08:13.419Z,99.90
2018-12-09T22:10:40.860Z,99.90
2018-12-09T22:13:08.304Z,99.90
2018-12-09T22:15:35.765Z,99.90
2018-12-09T22:18:03.250Z,99.90
2018-12-09T22:20:30.646Z,99.90
2018-12-09T22:22:58.043Z,99.90
2018-12-09T22:25:25.542Z,99.90
2018-12-09T22:27:52.980Z,99.90
2018-12-09T22:30:20.508Z,99.90
2018-12-09T22:32:47.916Z,99.90
2018-12-09T22:35:15.370Z,99.90
2018-12-09T22:37:42.842Z,99.90
2018-12-09T22:40:12.280Z,99.90
2018-12-09T22:42:39.804Z,99.90
2018-12-09T22:45:07.420Z,99.90
2018-12-09T22:47:34.840Z,99.90
2018-12-09T22:50:02.270Z,99.90
2018-12-09T22:52:29.786Z,99.90
2018-12-09T22:54:57.271Z,99.90
2018-12-09T22:57:24.696Z,99.90
2018-12-09T22:59:52.117Z,99.90
2018-12-09T23:02:25.316Z,99.90
2018-12-09T23:04:52.732Z,99.90
2018-12-09T23:07:25.737Z,99.90
2018-12-09T23:09:53.135Z,99.90
2018-12-09T23:12:20.562Z,99.90
2018-12-09T23:14:47.999Z,99.90
2018-12-09T23:17:15.404Z,99.90
2018-12-09T23:19:42.832Z,99.90
2018-12-09T23:22:10.240Z,99.90
2018-12-09T23:24:37.648Z,99.90
2018-12-09T23:27:05.108Z,99.90
2018-12-09T23:29:32.629Z,99.90
2018-12-09T23:32:00.039Z,99.90
2018-12-09T23:34:27.466Z,99.90
2018-12-09T23:36:56.468Z,99.90
2018-12-09T23:39:23.883Z,99.90
2018-12-09T23:41:51.816Z,99.90
2018-12-09T23:44:19.231Z,99.90
2018-12-09T23:46:46.678Z,99.90
2018-12-09T23:49:14.101Z,99.90
2018-12-09T23:51:41.527Z,99.90
2018-12-09T23:54:08.972Z,99.90
2018-12-09T23:56:36.418Z,99.90
2018-12-09T23:59:03.900Z,99.90
